sensor_id;sensor_type;location;lat;lon;timestamp;P1;durP1;ratioP1;P2;durP2;ratioP2
6598;SDS011;3335;43.198;27.918;2022-09-21T00:01:09;5.00;;;3.60;;
6598;SDS011;3335;43.198;27.918;2022-09-21T00:03:37;11.07;;;3.47;;
6598;SDS011;3335;43.198;27.918;2022-09-21T00:06:07;4.50;;;3.43;;
6598;SDS011;3335;43.198;27.918;2022-09-21T00:08:35;5.83;;;3.77;;
6598;SDS011;3335;43.198;27.918;2022-09-21T00:11:02;8.43;;;4.10;;
6598;SDS011;3335;43.198;27.918;2022-09-21T00:13:30;7.93;;;4.50;;
6598;SDS011;3335;43.198;27.918;2022-09-21T00:15:58;9.50;;;4.20;;
6598;SDS011;3335;43.198;27.918;2022-09-21T00:18:27;7.97;;;4.43;;
6598;SDS011;3335;43.198;27.918;2022-09-21T00:20:55;7.60;;;4.37;;
6598;SDS011;3335;43.198;27.918;2022-09-21T00:23:22;5.77;;;4.00;;
6598;SDS011;3335;43.198;27.918;2022-09-21T00:25:49;7.00;;;3.73;;
6598;SDS011;3335;43.198;27.918;2022-09-21T00:28:16;7.53;;;3.70;;
6598;SDS011;3335;43.198;27.918;2022-09-21T00:30:43;4.77;;;3.67;;
6598;SDS011;3335;43.198;27.918;2022-09-21T00:33:15;8.57;;;3.50;;
6598;SDS011;3335;43.198;27.918;2022-09-21T00:35:44;7.50;;;3.27;;
6598;SDS011;3335;43.198;27.918;2022-09-21T00:38:12;4.63;;;3.63;;
6598;SDS011;3335;43.198;27.918;2022-09-21T00:40:39;4.57;;;3.80;;
6598;SDS011;3335;43.198;27.918;2022-09-21T00:43:12;4.53;;;3.50;;
6598;SDS011;3335;43.198;27.918;2022-09-21T00:45:42;5.50;;;3.87;;
6598;SDS011;3335;43.198;27.918;2022-09-21T00:48:11;7.20;;;4.00;;
6598;SDS011;3335;43.198;27.918;2022-09-21T00:50:42;5.37;;;3.60;;
6598;SDS011;3335;43.198;27.918;2022-09-21T00:53:14;6.83;;;3.50;;
6598;SDS011;3335;43.198;27.918;2022-09-21T00:55:42;6.97;;;3.87;;
6598;SDS011;3335;43.198;27.918;2022-09-21T00:58:14;8.30;;;3.67;;
6598;SDS011;3335;43.198;27.918;2022-09-21T01:00:47;6.23;;;3.60;;
6598;SDS011;3335;43.198;27.918;2022-09-21T01:03:15;8.20;;;3.67;;
6598;SDS011;3335;43.198;27.918;2022-09-21T01:05:43;9.67;;;3.50;;
6598;SDS011;3335;43.198;27.918;2022-09-21T01:08:11;6.63;;;3.93;;
6598;SDS011;3335;43.198;27.918;2022-09-21T01:10:43;7.53;;;3.53;;
6598;SDS011;3335;43.198;27.918;2022-09-21T01:13:22;5.67;;;3.50;;
6598;SDS011;3335;43.198;27.918;2022-09-21T01:16:05;6.20;;;3.77;;
6598;SDS011;3335;43.198;27.918;2022-09-21T01:18:40;10.87;;;4.10;;
6598;SDS011;3335;43.198;27.918;2022-09-21T01:21:17;6.73;;;3.87;;
6598;SDS011;3335;43.198;27.918;2022-09-21T01:26:58;4.53;;;3.50;;
6598;SDS011;3335;43.198;27.918;2022-09-21T01:29:58;9.53;;;4.03;;
6598;SDS011;3335;43.198;27.918;2022-09-21T01:32:29;5.30;;;4.17;;
6598;SDS011;3335;43.198;27.918;2022-09-21T01:35:00;7.47;;;3.87;;
6598;SDS011;3335;43.198;27.918;2022-09-21T01:37:32;7.07;;;4.17;;
6598;SDS011;3335;43.198;27.918;2022-09-21T01:40:06;5.90;;;4.37;;
6598;SDS011;3335;43.198;27.918;2022-09-21T01:42:36;7.23;;;4.27;;
6598;SDS011;3335;43.198;27.918;2022-09-21T01:45:08;10.87;;;5.30;;
6598;SDS011;3335;43.198;27.918;2022-09-21T01:47:41;6.23;;;4.50;;
6598;SDS011;3335;43.198;27.918;2022-09-21T01:50:12;16.67;;;4.67;;
6598;SDS011;3335;43.198;27.918;2022-09-21T01:52:41;8.57;;;4.83;;
6598;SDS011;3335;43.198;27.918;2022-09-21T01:55:14;9.13;;;4.63;;
6598;SDS011;3335;43.198;27.918;2022-09-21T01:57:46;6.57;;;4.60;;
6598;SDS011;3335;43.198;27.918;2022-09-21T02:00:21;7.40;;;4.23;;
6598;SDS011;3335;43.198;27.918;2022-09-21T02:02:50;9.43;;;5.60;;
6598;SDS011;3335;43.198;27.918;2022-09-21T02:05:23;8.67;;;4.73;;
6598;SDS011;3335;43.198;27.918;2022-09-21T02:07:54;9.47;;;4.57;;
6598;SDS011;3335;43.198;27.918;2022-09-21T02:10:23;11.30;;;5.40;;
6598;SDS011;3335;43.198;27.918;2022-09-21T02:12:55;10.03;;;5.10;;
6598;SDS011;3335;43.198;27.918;2022-09-21T02:15:28;9.03;;;4.93;;
6598;SDS011;3335;43.198;27.918;2022-09-21T02:18:03;9.20;;;5.63;;
6598;SDS011;3335;43.198;27.918;2022-09-21T02:20:33;11.17;;;5.67;;
6598;SDS011;3335;43.198;27.918;2022-09-21T02:23:06;11.17;;;5.57;;
6598;SDS011;3335;43.198;27.918;2022-09-21T02:25:40;14.10;;;5.60;;
6598;SDS011;3335;43.198;27.918;2022-09-21T02:28:15;9.20;;;5.80;;
6598;SDS011;3335;43.198;27.918;2022-09-21T02:30:54;12.10;;;6.10;;
6598;SDS011;3335;43.198;27.918;2022-09-21T02:33:27;11.57;;;5.80;;
6598;SDS011;3335;43.198;27.918;2022-09-21T02:35:58;11.37;;;6.20;;
6598;SDS011;3335;43.198;27.918;2022-09-21T02:38:32;11.30;;;5.70;;
6598;SDS011;3335;43.198;27.918;2022-09-21T02:41:03;10.70;;;5.87;;
6598;SDS011;3335;43.198;27.918;2022-09-21T02:43:40;9.90;;;5.67;;
6598;SDS011;3335;43.198;27.918;2022-09-21T02:46:13;7.70;;;4.87;;
6598;SDS011;3335;43.198;27.918;2022-09-21T02:48:45;7.50;;;5.33;;
6598;SDS011;3335;43.198;27.918;2022-09-21T02:51:16;8.10;;;5.97;;
6598;SDS011;3335;43.198;27.918;2022-09-21T02:53:47;9.10;;;5.83;;
6598;SDS011;3335;43.198;27.918;2022-09-21T02:56:17;10.90;;;5.90;;
6598;SDS011;3335;43.198;27.918;2022-09-21T02:58:46;7.57;;;5.60;;
6598;SDS011;3335;43.198;27.918;2022-09-21T03:01:23;11.37;;;5.87;;
6598;SDS011;3335;43.198;27.918;2022-09-21T03:03:52;9.50;;;5.77;;
6598;SDS011;3335;43.198;27.918;2022-09-21T03:06:19;7.37;;;5.47;;
6598;SDS011;3335;43.198;27.918;2022-09-21T03:08:46;9.30;;;5.63;;
6598;SDS011;3335;43.198;27.918;2022-09-21T03:11:15;9.27;;;5.33;;
6598;SDS011;3335;43.198;27.918;2022-09-21T03:13:42;16.87;;;6.00;;
6598;SDS011;3335;43.198;27.918;2022-09-21T03:16:10;12.90;;;6.63;;
6598;SDS011;3335;43.198;27.918;2022-09-21T03:18:39;9.27;;;5.53;;
6598;SDS011;3335;43.198;27.918;2022-09-21T03:21:07;8.43;;;4.87;;
6598;SDS011;3335;43.198;27.918;2022-09-21T03:23:34;10.50;;;4.90;;
6598;SDS011;3335;43.198;27.918;2022-09-21T03:26:01;6.67;;;4.83;;
6598;SDS011;3335;43.198;27.918;2022-09-21T03:28:28;13.37;;;5.17;;
6598;SDS011;3335;43.198;27.918;2022-09-21T03:30:55;6.07;;;4.67;;
6598;SDS011;3335;43.198;27.918;2022-09-21T03:33:22;10.57;;;4.43;;
6598;SDS011;3335;43.198;27.918;2022-09-21T03:35:51;5.83;;;4.10;;
6598;SDS011;3335;43.198;27.918;2022-09-21T03:38:19;6.63;;;5.10;;
6598;SDS011;3335;43.198;27.918;2022-09-21T03:40:46;6.37;;;4.40;;
6598;SDS011;3335;43.198;27.918;2022-09-21T03:43:14;7.33;;;4.50;;
6598;SDS011;3335;43.198;27.918;2022-09-21T03:45:42;10.07;;;4.73;;
6598;SDS011;3335;43.198;27.918;2022-09-21T03:48:10;7.23;;;4.80;;
6598;SDS011;3335;43.198;27.918;2022-09-21T03:50:38;10.10;;;4.70;;
6598;SDS011;3335;43.198;27.918;2022-09-21T03:53:07;8.63;;;4.50;;
6598;SDS011;3335;43.198;27.918;2022-09-21T03:55:35;8.10;;;4.73;;
6598;SDS011;3335;43.198;27.918;2022-09-21T03:58:02;12.97;;;5.00;;
6598;SDS011;3335;43.198;27.918;2022-09-21T04:00:30;8.50;;;4.60;;
6598;SDS011;3335;43.198;27.918;2022-09-21T04:02:57;7.47;;;4.70;;
6598;SDS011;3335;43.198;27.918;2022-09-21T04:05:26;9.40;;;5.03;;
6598;SDS011;3335;43.198;27.918;2022-09-21T04:07:54;11.13;;;4.77;;
6598;SDS011;3335;43.198;27.918;2022-09-21T04:10:24;11.47;;;5.00;;
6598;SDS011;3335;43.198;27.918;2022-09-21T04:12:56;7.60;;;4.27;;
6598;SDS011;3335;43.198;27.918;2022-09-21T04:15:24;8.90;;;4.40;;
6598;SDS011;3335;43.198;27.918;2022-09-21T04:17:51;4.50;;;4.10;;
6598;SDS011;3335;43.198;27.918;2022-09-21T04:20:19;7.77;;;4.77;;
6598;SDS011;3335;43.198;27.918;2022-09-21T04:22:47;6.07;;;4.37;;
6598;SDS011;3335;43.198;27.918;2022-09-21T04:25:15;5.47;;;4.30;;
6598;SDS011;3335;43.198;27.918;2022-09-21T04:27:44;6.93;;;4.33;;
6598;SDS011;3335;43.198;27.918;2022-09-21T04:30:12;6.10;;;4.53;;
6598;SDS011;3335;43.198;27.918;2022-09-21T04:32:41;11.60;;;4.33;;
6598;SDS011;3335;43.198;27.918;2022-09-21T04:35:08;6.17;;;4.47;;
6598;SDS011;3335;43.198;27.918;2022-09-21T04:37:36;6.40;;;4.20;;
6598;SDS011;3335;43.198;27.918;2022-09-21T04:40:03;6.90;;;4.17;;
6598;SDS011;3335;43.198;27.918;2022-09-21T04:42:31;5.67;;;4.23;;
6598;SDS011;3335;43.198;27.918;2022-09-21T04:45:00;16.17;;;5.03;;
6598;SDS011;3335;43.198;27.918;2022-09-21T04:47:28;7.77;;;5.03;;
6598;SDS011;3335;43.198;27.918;2022-09-21T04:49:55;7.57;;;4.63;;
6598;SDS011;3335;43.198;27.918;2022-09-21T04:52:23;10.13;;;4.37;;
6598;SDS011;3335;43.198;27.918;2022-09-21T04:54:50;7.63;;;3.83;;
6598;SDS011;3335;43.198;27.918;2022-09-21T04:57:17;6.00;;;4.70;;
6598;SDS011;3335;43.198;27.918;2022-09-21T04:59:44;7.43;;;4.00;;
6598;SDS011;3335;43.198;27.918;2022-09-21T05:02:12;6.27;;;4.07;;
6598;SDS011;3335;43.198;27.918;2022-09-21T05:04:39;7.73;;;4.60;;
6598;SDS011;3335;43.198;27.918;2022-09-21T05:07:06;5.63;;;4.20;;
6598;SDS011;3335;43.198;27.918;2022-09-21T05:09:33;5.97;;;4.20;;
6598;SDS011;3335;43.198;27.918;2022-09-21T05:12:18;8.60;;;3.90;;
6598;SDS011;3335;43.198;27.918;2022-09-21T05:14:45;6.77;;;4.10;;
6598;SDS011;3335;43.198;27.918;2022-09-21T05:17:13;8.73;;;4.60;;
6598;SDS011;3335;43.198;27.918;2022-09-21T05:19:41;8.13;;;3.90;;
6598;SDS011;3335;43.198;27.918;2022-09-21T05:22:08;4.83;;;4.03;;
6598;SDS011;3335;43.198;27.918;2022-09-21T05:24:35;5.33;;;3.80;;
6598;SDS011;3335;43.198;27.918;2022-09-21T05:27:02;6.37;;;3.97;;
6598;SDS011;3335;43.198;27.918;2022-09-21T05:29:29;3.97;;;3.40;;
6598;SDS011;3335;43.198;27.918;2022-09-21T05:31:58;5.67;;;3.73;;
6598;SDS011;3335;43.198;27.918;2022-09-21T05:34:46;6.17;;;4.03;;
6598;SDS011;3335;43.198;27.918;2022-09-21T05:37:27;6.97;;;3.47;;
6598;SDS011;3335;43.198;27.918;2022-09-21T05:40:04;7.30;;;3.40;;
6598;SDS011;3335;43.198;27.918;2022-09-21T05:42:32;4.37;;;3.20;;
6598;SDS011;3335;43.198;27.918;2022-09-21T05:45:00;4.97;;;3.00;;
6598;SDS011;3335;43.198;27.918;2022-09-21T05:47:32;4.20;;;3.13;;
6598;SDS011;3335;43.198;27.918;2022-09-21T05:50:13;4.17;;;2.77;;
6598;SDS011;3335;43.198;27.918;2022-09-21T05:52:52;6.63;;;3.57;;
6598;SDS011;3335;43.198;27.918;2022-09-21T05:55:30;4.37;;;2.90;;
6598;SDS011;3335;43.198;27.918;2022-09-21T05:58:05;5.20;;;2.90;;
6598;SDS011;3335;43.198;27.918;2022-09-21T06:00:41;6.77;;;2.90;;
6598;SDS011;3335;43.198;27.918;2022-09-21T06:03:23;3.67;;;3.00;;
6598;SDS011;3335;43.198;27.918;2022-09-21T06:05:54;3.90;;;3.50;;
6598;SDS011;3335;43.198;27.918;2022-09-21T06:08:21;7.43;;;3.90;;
6598;SDS011;3335;43.198;27.918;2022-09-21T06:10:49;10.07;;;3.70;;
6598;SDS011;3335;43.198;27.918;2022-09-21T06:13:16;13.80;;;3.83;;
6598;SDS011;3335;43.198;27.918;2022-09-21T06:15:43;6.80;;;3.10;;
6598;SDS011;3335;43.198;27.918;2022-09-21T06:18:10;4.20;;;3.57;;
6598;SDS011;3335;43.198;27.918;2022-09-21T06:20:37;16.70;;;3.60;;
6598;SDS011;3335;43.198;27.918;2022-09-21T06:23:06;4.63;;;3.73;;
6598;SDS011;3335;43.198;27.918;2022-09-21T06:25:35;6.87;;;3.33;;
6598;SDS011;3335;43.198;27.918;2022-09-21T06:28:02;11.37;;;3.20;;
6598;SDS011;3335;43.198;27.918;2022-09-21T06:30:30;8.67;;;3.07;;
6598;SDS011;3335;43.198;27.918;2022-09-21T06:32:58;4.40;;;3.30;;
6598;SDS011;3335;43.198;27.918;2022-09-21T06:35:26;4.20;;;2.50;;
6598;SDS011;3335;43.198;27.918;2022-09-21T06:37:56;8.33;;;3.43;;
6598;SDS011;3335;43.198;27.918;2022-09-21T06:40:25;10.13;;;3.23;;
6598;SDS011;3335;43.198;27.918;2022-09-21T06:42:55;5.87;;;3.47;;
6598;SDS011;3335;43.198;27.918;2022-09-21T06:45:23;4.63;;;3.20;;
6598;SDS011;3335;43.198;27.918;2022-09-21T06:47:50;6.83;;;3.30;;
6598;SDS011;3335;43.198;27.918;2022-09-21T06:50:17;4.80;;;3.10;;
6598;SDS011;3335;43.198;27.918;2022-09-21T06:52:45;11.40;;;3.50;;
6598;SDS011;3335;43.198;27.918;2022-09-21T06:55:12;7.70;;;3.00;;
6598;SDS011;3335;43.198;27.918;2022-09-21T06:57:41;4.70;;;2.93;;
6598;SDS011;3335;43.198;27.918;2022-09-21T07:00:10;7.87;;;3.00;;
6598;SDS011;3335;43.198;27.918;2022-09-21T07:02:41;3.97;;;2.90;;
6598;SDS011;3335;43.198;27.918;2022-09-21T07:05:08;3.43;;;2.50;;
6598;SDS011;3335;43.198;27.918;2022-09-21T07:07:35;3.90;;;2.40;;
6598;SDS011;3335;43.198;27.918;2022-09-21T07:10:03;4.67;;;2.47;;
6598;SDS011;3335;43.198;27.918;2022-09-21T07:12:32;5.53;;;2.63;;
6598;SDS011;3335;43.198;27.918;2022-09-21T07:15:00;5.17;;;2.00;;
6598;SDS011;3335;43.198;27.918;2022-09-21T07:17:30;3.43;;;1.83;;
6598;SDS011;3335;43.198;27.918;2022-09-21T07:19:58;5.87;;;2.67;;
6598;SDS011;3335;43.198;27.918;2022-09-21T07:22:27;2.33;;;1.90;;
6598;SDS011;3335;43.198;27.918;2022-09-21T07:24:54;2.10;;;1.80;;
6598;SDS011;3335;43.198;27.918;2022-09-21T07:27:22;2.00;;;1.60;;
6598;SDS011;3335;43.198;27.918;2022-09-21T07:29:49;2.73;;;1.60;;
6598;SDS011;3335;43.198;27.918;2022-09-21T07:32:17;2.17;;;1.73;;
6598;SDS011;3335;43.198;27.918;2022-09-21T07:34:46;4.90;;;1.53;;
6598;SDS011;3335;43.198;27.918;2022-09-21T07:37:13;1.57;;;1.47;;
6598;SDS011;3335;43.198;27.918;2022-09-21T07:39:40;3.47;;;1.50;;
6598;SDS011;3335;43.198;27.918;2022-09-21T07:42:07;4.20;;;1.70;;
6598;SDS011;3335;43.198;27.918;2022-09-21T07:44:34;4.17;;;1.47;;
6598;SDS011;3335;43.198;27.918;2022-09-21T07:47:01;2.47;;;1.80;;
6598;SDS011;3335;43.198;27.918;2022-09-21T07:49:29;1.87;;;1.57;;
6598;SDS011;3335;43.198;27.918;2022-09-21T07:51:56;3.97;;;2.00;;
6598;SDS011;3335;43.198;27.918;2022-09-21T07:54:23;2.10;;;1.57;;
6598;SDS011;3335;43.198;27.918;2022-09-21T07:56:50;4.50;;;1.47;;
6598;SDS011;3335;43.198;27.918;2022-09-21T07:59:31;1.60;;;1.50;;
6598;SDS011;3335;43.198;27.918;2022-09-21T08:01:58;1.73;;;1.50;;
6598;SDS011;3335;43.198;27.918;2022-09-21T08:04:25;1.73;;;1.20;;
6598;SDS011;3335;43.198;27.918;2022-09-21T08:06:53;1.70;;;1.60;;
6598;SDS011;3335;43.198;27.918;2022-09-21T08:09:20;1.63;;;1.40;;
6598;SDS011;3335;43.198;27.918;2022-09-21T08:11:47;1.63;;;1.53;;
6598;SDS011;3335;43.198;27.918;2022-09-21T08:14:16;2.23;;;1.47;;
6598;SDS011;3335;43.198;27.918;2022-09-21T08:16:44;1.20;;;1.10;;
6598;SDS011;3335;43.198;27.918;2022-09-21T08:19:12;4.07;;;1.30;;
6598;SDS011;3335;43.198;27.918;2022-09-21T08:21:40;2.73;;;1.60;;
6598;SDS011;3335;43.198;27.918;2022-09-21T08:24:09;3.70;;;1.90;;
6598;SDS011;3335;43.198;27.918;2022-09-21T08:26:36;4.80;;;1.63;;
6598;SDS011;3335;43.198;27.918;2022-09-21T08:29:05;1.63;;;1.50;;
6598;SDS011;3335;43.198;27.918;2022-09-21T08:31:32;1.60;;;1.40;;
6598;SDS011;3335;43.198;27.918;2022-09-21T08:33:59;2.43;;;1.63;;
6598;SDS011;3335;43.198;27.918;2022-09-21T08:36:26;4.37;;;1.40;;
6598;SDS011;3335;43.198;27.918;2022-09-21T08:38:53;2.20;;;1.60;;
6598;SDS011;3335;43.198;27.918;2022-09-21T08:41:23;1.90;;;1.40;;
6598;SDS011;3335;43.198;27.918;2022-09-21T08:44:09;5.53;;;1.20;;
6598;SDS011;3335;43.198;27.918;2022-09-21T08:46:39;2.43;;;1.20;;
6598;SDS011;3335;43.198;27.918;2022-09-21T08:49:09;1.17;;;1.17;;
6598;SDS011;3335;43.198;27.918;2022-09-21T08:51:44;1.33;;;1.20;;
6598;SDS011;3335;43.198;27.918;2022-09-21T08:54:15;1.20;;;1.20;;
6598;SDS011;3335;43.198;27.918;2022-09-21T08:56:49;1.37;;;1.30;;
6598;SDS011;3335;43.198;27.918;2022-09-21T08:59:17;2.60;;;1.30;;
6598;SDS011;3335;43.198;27.918;2022-09-21T09:01:48;1.37;;;1.30;;
6598;SDS011;3335;43.198;27.918;2022-09-21T09:04:27;2.33;;;1.70;;
6598;SDS011;3335;43.198;27.918;2022-09-21T09:07:14;1.83;;;1.60;;
6598;SDS011;3335;43.198;27.918;2022-09-21T09:12:51;1.37;;;1.23;;
6598;SDS011;3335;43.198;27.918;2022-09-21T09:15:36;1.57;;;1.13;;
6598;SDS011;3335;43.198;27.918;2022-09-21T09:18:17;1.17;;;1.10;;
6598;SDS011;3335;43.198;27.918;2022-09-21T09:20:52;1.30;;;1.20;;
6598;SDS011;3335;43.198;27.918;2022-09-21T09:23:23;2.87;;;1.03;;
6598;SDS011;3335;43.198;27.918;2022-09-21T09:25:55;1.47;;;1.27;;
6598;SDS011;3335;43.198;27.918;2022-09-21T09:28:29;1.10;;;1.10;;
6598;SDS011;3335;43.198;27.918;2022-09-21T09:31:01;1.40;;;1.27;;
6598;SDS011;3335;43.198;27.918;2022-09-21T09:33:37;2.20;;;1.10;;
6598;SDS011;3335;43.198;27.918;2022-09-21T09:36:13;1.40;;;1.30;;
6598;SDS011;3335;43.198;27.918;2022-09-21T09:38:43;1.07;;;0.97;;
6598;SDS011;3335;43.198;27.918;2022-09-21T09:41:28;1.57;;;1.10;;
6598;SDS011;3335;43.198;27.918;2022-09-21T09:44:21;4.07;;;1.17;;
6598;SDS011;3335;43.198;27.918;2022-09-21T09:46:59;2.10;;;1.37;;
6598;SDS011;3335;43.198;27.918;2022-09-21T09:49:35;1.00;;;1.00;;
6598;SDS011;3335;43.198;27.918;2022-09-21T09:52:10;1.10;;;1.00;;
6598;SDS011;3335;43.198;27.918;2022-09-21T09:54:40;1.93;;;1.20;;
6598;SDS011;3335;43.198;27.918;2022-09-21T09:57:08;3.33;;;1.20;;
6598;SDS011;3335;43.198;27.918;2022-09-21T09:59:40;4.00;;;1.00;;
6598;SDS011;3335;43.198;27.918;2022-09-21T10:02:18;1.83;;;1.40;;
6598;SDS011;3335;43.198;27.918;2022-09-21T10:04:54;1.60;;;1.40;;
6598;SDS011;3335;43.198;27.918;2022-09-21T10:07:34;2.10;;;1.60;;
6598;SDS011;3335;43.198;27.918;2022-09-21T10:10:06;1.60;;;1.50;;
6598;SDS011;3335;43.198;27.918;2022-09-21T10:13:09;1.40;;;1.30;;
6598;SDS011;3335;43.198;27.918;2022-09-21T10:15:44;1.50;;;1.40;;
6598;SDS011;3335;43.198;27.918;2022-09-21T10:18:19;5.40;;;1.43;;
6598;SDS011;3335;43.198;27.918;2022-09-21T10:20:54;1.63;;;1.23;;
6598;SDS011;3335;43.198;27.918;2022-09-21T10:23:23;1.40;;;1.30;;
6598;SDS011;3335;43.198;27.918;2022-09-21T10:25:55;2.40;;;1.20;;
6598;SDS011;3335;43.198;27.918;2022-09-21T10:28:28;2.17;;;1.47;;
6598;SDS011;3335;43.198;27.918;2022-09-21T10:31:17;2.67;;;1.60;;
6598;SDS011;3335;43.198;27.918;2022-09-21T10:33:49;3.77;;;1.60;;
6598;SDS011;3335;43.198;27.918;2022-09-21T10:36:25;3.37;;;2.53;;
6598;SDS011;3335;43.198;27.918;2022-09-21T10:38:54;6.20;;;3.10;;
6598;SDS011;3335;43.198;27.918;2022-09-21T10:41:21;7.60;;;4.10;;
6598;SDS011;3335;43.198;27.918;2022-09-21T10:43:49;7.97;;;4.87;;
6598;SDS011;3335;43.198;27.918;2022-09-21T10:46:32;5.50;;;4.00;;
6598;SDS011;3335;43.198;27.918;2022-09-21T10:49:01;12.80;;;5.40;;
6598;SDS011;3335;43.198;27.918;2022-09-21T10:51:28;6.73;;;3.73;;
6598;SDS011;3335;43.198;27.918;2022-09-21T10:53:59;3.17;;;2.30;;
6598;SDS011;3335;43.198;27.918;2022-09-21T10:56:26;3.30;;;1.70;;
6598;SDS011;3335;43.198;27.918;2022-09-21T10:59:10;2.40;;;2.20;;
6598;SDS011;3335;43.198;27.918;2022-09-21T11:01:47;1.57;;;1.30;;
6598;SDS011;3335;43.198;27.918;2022-09-21T11:04:17;4.03;;;1.40;;
6598;SDS011;3335;43.198;27.918;2022-09-21T11:06:52;1.20;;;1.20;;
6598;SDS011;3335;43.198;27.918;2022-09-21T11:09:25;1.80;;;1.30;;
6598;SDS011;3335;43.198;27.918;2022-09-21T11:11:58;1.43;;;1.33;;
6598;SDS011;3335;43.198;27.918;2022-09-21T11:14:35;5.33;;;1.53;;
6598;SDS011;3335;43.198;27.918;2022-09-21T11:17:14;4.53;;;1.47;;
6598;SDS011;3335;43.198;27.918;2022-09-21T11:19:48;1.40;;;1.30;;
6598;SDS011;3335;43.198;27.918;2022-09-21T11:22:21;2.30;;;1.30;;
6598;SDS011;3335;43.198;27.918;2022-09-21T11:24:58;2.47;;;1.10;;
6598;SDS011;3335;43.198;27.918;2022-09-21T11:27:32;3.47;;;1.80;;
6598;SDS011;3335;43.198;27.918;2022-09-21T11:30:05;2.57;;;1.60;;
6598;SDS011;3335;43.198;27.918;2022-09-21T11:32:43;2.00;;;1.63;;
6598;SDS011;3335;43.198;27.918;2022-09-21T11:35:32;1.33;;;1.23;;
6598;SDS011;3335;43.198;27.918;2022-09-21T11:38:10;3.77;;;2.40;;
6598;SDS011;3335;43.198;27.918;2022-09-21T11:40:57;5.33;;;3.00;;
6598;SDS011;3335;43.198;27.918;2022-09-21T11:43:38;6.80;;;3.40;;
6598;SDS011;3335;43.198;27.918;2022-09-21T11:46:20;7.03;;;2.27;;
6598;SDS011;3335;43.198;27.918;2022-09-21T11:49:09;2.43;;;1.80;;
6598;SDS011;3335;43.198;27.918;2022-09-21T11:51:55;1.67;;;1.50;;
6598;SDS011;3335;43.198;27.918;2022-09-21T11:54:41;3.43;;;1.30;;
6598;SDS011;3335;43.198;27.918;2022-09-21T11:57:23;2.50;;;1.37;;
6598;SDS011;3335;43.198;27.918;2022-09-21T12:00:03;2.33;;;1.23;;
6598;SDS011;3335;43.198;27.918;2022-09-21T12:02:54;2.17;;;1.57;;
6598;SDS011;3335;43.198;27.918;2022-09-21T12:05:47;4.90;;;2.10;;
6598;SDS011;3335;43.198;27.918;2022-09-21T12:08:29;3.50;;;1.60;;
6598;SDS011;3335;43.198;27.918;2022-09-21T12:11:20;6.77;;;1.70;;
6598;SDS011;3335;43.198;27.918;2022-09-21T12:13:56;1.93;;;1.40;;
6598;SDS011;3335;43.198;27.918;2022-09-21T12:16:33;2.93;;;1.53;;
6598;SDS011;3335;43.198;27.918;2022-09-21T12:19:07;3.10;;;1.50;;
6598;SDS011;3335;43.198;27.918;2022-09-21T12:21:43;2.93;;;1.50;;
6598;SDS011;3335;43.198;27.918;2022-09-21T12:24:15;3.80;;;1.47;;
6598;SDS011;3335;43.198;27.918;2022-09-21T12:26:49;6.47;;;1.87;;
6598;SDS011;3335;43.198;27.918;2022-09-21T12:29:25;7.83;;;2.63;;
6598;SDS011;3335;43.198;27.918;2022-09-21T12:31:59;4.43;;;2.10;;
6598;SDS011;3335;43.198;27.918;2022-09-21T12:34:36;3.53;;;1.73;;
6598;SDS011;3335;43.198;27.918;2022-09-21T12:37:08;2.33;;;1.83;;
6598;SDS011;3335;43.198;27.918;2022-09-21T12:39:42;5.37;;;1.53;;
6598;SDS011;3335;43.198;27.918;2022-09-21T12:42:22;6.10;;;1.63;;
6598;SDS011;3335;43.198;27.918;2022-09-21T12:44:54;4.43;;;2.27;;
6598;SDS011;3335;43.198;27.918;2022-09-21T12:47:28;2.30;;;1.67;;
6598;SDS011;3335;43.198;27.918;2022-09-21T12:50:04;1.40;;;1.30;;
6598;SDS011;3335;43.198;27.918;2022-09-21T12:52:42;7.87;;;2.27;;
6598;SDS011;3335;43.198;27.918;2022-09-21T12:55:14;2.63;;;2.20;;
6598;SDS011;3335;43.198;27.918;2022-09-21T12:57:54;2.17;;;1.97;;
6598;SDS011;3335;43.198;27.918;2022-09-21T13:00:28;4.37;;;3.20;;
6598;SDS011;3335;43.198;27.918;2022-09-21T13:03:02;5.43;;;4.03;;
6598;SDS011;3335;43.198;27.918;2022-09-21T13:05:40;2.70;;;2.07;;
6598;SDS011;3335;43.198;27.918;2022-09-21T13:08:22;9.87;;;2.70;;
6598;SDS011;3335;43.198;27.918;2022-09-21T13:10:56;3.17;;;2.37;;
6598;SDS011;3335;43.198;27.918;2022-09-21T13:13:29;2.73;;;1.80;;
6598;SDS011;3335;43.198;27.918;2022-09-21T13:15:59;3.27;;;1.80;;
6598;SDS011;3335;43.198;27.918;2022-09-21T13:18:29;1.63;;;1.50;;
6598;SDS011;3335;43.198;27.918;2022-09-21T13:20:59;2.70;;;1.60;;
6598;SDS011;3335;43.198;27.918;2022-09-21T13:23:29;1.80;;;1.70;;
6598;SDS011;3335;43.198;27.918;2022-09-21T13:26:02;2.03;;;1.43;;
6598;SDS011;3335;43.198;27.918;2022-09-21T13:31:38;2.97;;;1.53;;
6598;SDS011;3335;43.198;27.918;2022-09-21T13:34:20;2.33;;;1.40;;
6598;SDS011;3335;43.198;27.918;2022-09-21T13:39:43;2.23;;;1.60;;
6598;SDS011;3335;43.198;27.918;2022-09-21T13:48:17;1.30;;;1.20;;
6598;SDS011;3335;43.198;27.918;2022-09-21T13:50:49;1.50;;;1.40;;
6598;SDS011;3335;43.198;27.918;2022-09-21T13:53:17;3.43;;;1.50;;
6598;SDS011;3335;43.198;27.918;2022-09-21T13:55:49;6.97;;;2.43;;
6598;SDS011;3335;43.198;27.918;2022-09-21T13:58:19;3.53;;;1.93;;
6598;SDS011;3335;43.198;27.918;2022-09-21T14:00:50;1.00;;;1.00;;
6598;SDS011;3335;43.198;27.918;2022-09-21T14:03:21;3.97;;;1.27;;
6598;SDS011;3335;43.198;27.918;2022-09-21T14:05:51;2.60;;;1.20;;
6598;SDS011;3335;43.198;27.918;2022-09-21T14:08:21;6.30;;;2.77;;
6598;SDS011;3335;43.198;27.918;2022-09-21T14:10:54;2.07;;;1.80;;
6598;SDS011;3335;43.198;27.918;2022-09-21T14:13:27;1.40;;;1.00;;
6598;SDS011;3335;43.198;27.918;2022-09-21T14:18:51;3.90;;;1.50;;
6598;SDS011;3335;43.198;27.918;2022-09-21T14:21:18;1.40;;;1.30;;
6598;SDS011;3335;43.198;27.918;2022-09-21T14:26:46;3.73;;;1.87;;
6598;SDS011;3335;43.198;27.918;2022-09-21T14:29:22;2.23;;;1.53;;
6598;SDS011;3335;43.198;27.918;2022-09-21T14:31:54;2.30;;;2.10;;
6598;SDS011;3335;43.198;27.918;2022-09-21T14:34:24;4.00;;;1.53;;
6598;SDS011;3335;43.198;27.918;2022-09-21T14:36:57;5.70;;;1.80;;
6598;SDS011;3335;43.198;27.918;2022-09-21T14:39:29;3.23;;;2.30;;
6598;SDS011;3335;43.198;27.918;2022-09-21T14:42:01;3.67;;;1.90;;
6598;SDS011;3335;43.198;27.918;2022-09-21T14:44:37;7.17;;;2.60;;
6598;SDS011;3335;43.198;27.918;2022-09-21T14:47:15;1.23;;;1.13;;
6598;SDS011;3335;43.198;27.918;2022-09-21T14:50:03;7.00;;;2.20;;
6598;SDS011;3335;43.198;27.918;2022-09-21T14:52:46;3.37;;;1.90;;
6598;SDS011;3335;43.198;27.918;2022-09-21T14:55:25;6.07;;;3.23;;
6598;SDS011;3335;43.198;27.918;2022-09-21T14:58:03;6.97;;;4.00;;
6598;SDS011;3335;43.198;27.918;2022-09-21T15:00:45;6.97;;;3.40;;
6598;SDS011;3335;43.198;27.918;2022-09-21T15:03:28;2.83;;;1.80;;
6598;SDS011;3335;43.198;27.918;2022-09-21T15:06:10;6.43;;;3.53;;
6598;SDS011;3335;43.198;27.918;2022-09-21T15:09:12;1.87;;;1.33;;
6598;SDS011;3335;43.198;27.918;2022-09-21T15:12:11;3.50;;;2.00;;
6598;SDS011;3335;43.198;27.918;2022-09-21T15:14:45;3.03;;;2.00;;
6598;SDS011;3335;43.198;27.918;2022-09-21T15:17:17;5.67;;;3.50;;
6598;SDS011;3335;43.198;27.918;2022-09-21T15:19:49;4.37;;;2.37;;
6598;SDS011;3335;43.198;27.918;2022-09-21T15:22:17;2.70;;;1.67;;
6598;SDS011;3335;43.198;27.918;2022-09-21T15:24:50;1.90;;;1.30;;
6598;SDS011;3335;43.198;27.918;2022-09-21T15:27:18;6.70;;;1.67;;
6598;SDS011;3335;43.198;27.918;2022-09-21T15:29:51;5.50;;;1.70;;
6598;SDS011;3335;43.198;27.918;2022-09-21T15:32:23;3.60;;;1.77;;
6598;SDS011;3335;43.198;27.918;2022-09-21T15:34:57;6.70;;;2.30;;
6598;SDS011;3335;43.198;27.918;2022-09-21T15:37:26;2.50;;;1.70;;
6598;SDS011;3335;43.198;27.918;2022-09-21T15:39:58;5.23;;;2.80;;
6598;SDS011;3335;43.198;27.918;2022-09-21T15:42:26;5.27;;;2.90;;
6598;SDS011;3335;43.198;27.918;2022-09-21T15:45:00;5.93;;;2.53;;
6598;SDS011;3335;43.198;27.918;2022-09-21T15:47:44;3.87;;;2.53;;
6598;SDS011;3335;43.198;27.918;2022-09-21T15:50:11;2.87;;;2.03;;
6598;SDS011;3335;43.198;27.918;2022-09-21T15:52:40;4.60;;;2.67;;
6598;SDS011;3335;43.198;27.918;2022-09-21T15:55:13;5.90;;;2.37;;